Airfield :







YOU CAN JOIN US ON...

 
LOGIN :

Register | Disclaimer

   EN    FR    IT 

 









Legend :    VFR   Marginal VFR   IFR   Intensive IFR   Very Intensive IFR
Visi :
Ceiling :
>= 8 km
>= 3000ft
5 to 8 km
1000 to 3000 ft
1500m to 5 km
500 to 1000 ft
800 to 1500m
200 to 500 ft
< 800m
< 200 ft
Symbols :   Thunderstorms  Fog  Heavy snow  Heavy precipitations  Wind > 20 kt






- Airport Elevation : 92 ft
- IATA code : YZX


CYZX - CFB Greenwood

CURRENT METAR :
  • 240900Z CCA 00000KT 3/8SM FG VV002 16/16 A3026 RMK FG8 SLP246

EXPIRED METARs :
  • 240818Z 07004KT 3/4SM BR SCT003 BKN065 16/16 A3025 RMK SF4 SC3 SLP245
  • 240800Z 06003KT 5SM BR BKN065 16/16 A3025 RMK SC7 SLP245
  • 240743Z 04003KT 1SM BR SCT003 BKN045 16/16 A3026 RMK SF3SC 4 SLP246
  • 240700Z 00000KT 1/2SM FG BKN003 OVC045 16/16 A3026 RMK SF7SC1 SLP247

TAF AMD TAF CYZX
Valid from the 24 at 09:00 until the 25 at 06:00 UTC


240904Z 2409/2506 VRB03KT 1/4SM FG VV002
TEMPO 2409/2411 5SM BR SCT003 SCT040
BECMG 2411/2413 P6SM NSW FEW003 SCT040
FM241300 15005KT P6SM SCT010 SCT030
BECMG 2414/2416 15012KT
FM242300 15010KT P6SM SCT008 BKN030
FM250200 16005KT 6SM BR OVC008 RMK NXT FCST BY 241200Z
CZQM FIR / North America



MET'MAP, your aeronautical weather chart ! - Copyright ORBIFLY December 2007 - Disclaimer

ORBIFLY MET'MAP TEAM :

Programming & Development : Alexandra Zaïnal
Concept & original design : Baudouin d'Aumeries
Assistance for programming : Marc-Olivier Méhu
Technical & hardware support : Manuel Goepfert

Contact : metmap@orbifly.com




SOURCES & CREDITS :

   NOAA